Time;durP1;ratioP1;P1;durP2;ratioP2;P2;SDS_P1;SDS_P2;PMS_P1;PMS_P2;Temp;Humidity;BMP_temperature;BMP_pressure;BME280_temperature;BME280_humidity;BME280_pressure;Samples;Min_cycle;Max_cycle;Signal;HPM_P1;HPM_P2
2022/07/14 00:01:37;;;;;;;11.95;1.80;;;;;;;17.17;68.88;102093.22;4972575;28;20051;-78
2022/07/14 00:04:04;;;;;;;7.90;1.85;;;;;;;17.15;69.03;102102.63;4971031;28;20027;-76
2022/07/14 00:06:29;;;;;;;13.68;2.45;;;;;;;17.14;68.77;102111.78;4971143;28;20479;-77
2022/07/14 00:08:54;;;;;;;12.55;2.38;;;;;;;17.15;68.65;102108.91;4970455;28;20023;-76
2022/07/14 00:11:20;;;;;;;16.77;3.30;;;;;;;17.13;68.75;102105.53;4973976;28;20030;-75
2022/07/14 00:13:46;;;;;;;10.57;2.22;;;;;;;17.07;68.95;102111.75;4973597;28;20242;-77
2022/07/14 00:16:11;;;;;;;12.77;2.42;;;;;;;17.03;69.12;102110.44;4975333;28;20124;-77
2022/07/14 00:18:43;;;;;;;9.30;2.08;;;;;;;17.03;68.96;102100.41;4975316;28;20077;-77
2022/07/14 00:21:09;;;;;;;9.27;2.15;;;;;;;16.97;69.16;102114.78;4974329;28;20034;-76
2022/07/14 00:23:34;;;;;;;11.80;2.00;;;;;;;16.97;69.18;102105.78;4973737;28;20022;-75
2022/07/14 00:25:59;;;;;;;9.18;2.65;;;;;;;16.95;69.03;102099.69;4975141;28;20031;-75
2022/07/14 00:28:25;;;;;;;11.23;2.08;;;;;;;16.88;69.19;102100.47;4974874;28;20035;-74
2022/07/14 00:30:51;;;;;;;20.13;2.67;;;;;;;16.85;69.41;102102.72;4975327;28;20023;-75
2022/07/14 00:33:17;;;;;;;10.23;1.65;;;;;;;16.80;69.57;102100.59;4975002;28;20122;-75
2022/07/14 00:35:42;;;;;;;15.40;2.03;;;;;;;16.75;69.80;102096.75;4974639;28;20607;-75
2022/07/14 00:38:07;;;;;;;8.45;1.50;;;;;;;16.73;69.65;102105.06;4974879;28;20511;-75
2022/07/14 00:40:33;;;;;;;12.07;2.03;;;;;;;16.70;69.90;102110.91;4975585;28;20479;-76
2022/07/14 00:42:58;;;;;;;10.65;2.33;;;;;;;16.63;70.18;102107.25;4974709;28;20086;-74
2022/07/14 00:45:26;;;;;;;12.30;1.90;;;;;;;16.62;70.44;102116.47;4974132;28;20113;-76
2022/07/14 00:47:51;;;;;;;12.07;1.75;;;;;;;16.58;70.40;102107.81;4973385;28;20027;-76
2022/07/14 00:50:18;;;;;;;8.55;1.42;;;;;;;16.59;70.31;102101.38;4974147;28;20046;-77
2022/07/14 00:52:45;;;;;;;8.32;1.63;;;;;;;16.55;70.31;102101.94;4975529;28;20117;-78
2022/07/14 00:55:12;;;;;;;8.48;1.65;;;;;;;16.50;70.64;102102.50;4974056;28;20050;-77
2022/07/14 00:57:38;;;;;;;13.48;1.85;;;;;;;16.48;70.92;102101.00;4975480;28;20062;-78
2022/07/14 01:00:06;;;;;;;15.50;1.77;;;;;;;16.45;70.85;102111.22;4973754;28;20059;-76
2022/07/14 01:02:31;;;;;;;15.32;1.77;;;;;;;16.41;71.25;102103.66;4975637;28;20027;-77
2022/07/14 01:04:57;;;;;;;12.10;1.85;;;;;;;16.37;71.40;102103.19;4976656;28;20108;-74
2022/07/14 01:07:22;;;;;;;7.60;1.77;;;;;;;16.35;71.50;102113.41;4987229;28;20027;-75
2022/07/14 01:09:48;;;;;;;14.85;2.65;;;;;;;16.32;71.38;102102.91;4993402;28;20050;-76
2022/07/14 01:12:13;;;;;;;7.95;2.05;;;;;;;16.27;71.53;102104.50;4988796;28;20691;-75
2022/07/14 01:14:39;;;;;;;12.60;2.10;;;;;;;16.24;71.96;102105.72;4978575;28;20141;-76
2022/07/14 01:17:07;;;;;;;13.90;2.15;;;;;;;16.23;72.26;102101.31;4979962;28;20034;-75
2022/07/14 01:19:33;;;;;;;15.65;2.15;;;;;;;16.19;72.23;102103.59;4974288;28;20114;-75
2022/07/14 01:21:59;;;;;;;10.65;2.08;;;;;;;16.21;72.24;102106.94;4974854;28;20041;-76
2022/07/14 01:24:25;;;;;;;15.35;1.70;;;;;;;16.15;72.26;102101.44;4974665;28;20051;-76
2022/07/14 01:26:51;;;;;;;7.47;1.85;;;;;;;16.12;72.55;102104.53;4975934;28;20122;-76
2022/07/14 01:29:17;;;;;;;7.10;1.60;;;;;;;16.11;72.64;102110.97;4974673;28;20842;-76
2022/07/14 01:31:43;;;;;;;11.85;2.13;;;;;;;16.09;72.75;102113.91;4974768;28;20049;-76
2022/07/14 01:34:08;;;;;;;8.13;1.77;;;;;;;16.06;72.54;102107.97;4974184;28;20054;-76
2022/07/14 01:36:34;;;;;;;9.75;1.58;;;;;;;15.98;72.62;102111.63;4954024;28;20050;-78
2022/07/14 01:39:00;;;;;;;7.47;1.75;;;;;;;15.92;73.32;102107.78;4966234;28;20029;-76
2022/07/14 01:41:26;;;;;;;8.90;1.52;;;;;;;15.80;73.44;102104.69;4974395;28;20097;-76
2022/07/14 01:43:52;;;;;;;7.65;1.58;;;;;;;15.72;73.92;102101.25;4973618;28;20027;-75
2022/07/14 01:46:17;;;;;;;14.18;1.92;;;;;;;15.66;74.59;102110.06;4972652;28;20026;-75
2022/07/14 01:48:43;;;;;;;9.32;1.80;;;;;;;15.63;74.77;102102.31;4973877;28;20026;-79
2022/07/14 01:51:08;;;;;;;15.60;2.05;;;;;;;15.59;74.82;102102.69;4972506;28;20030;-78
2022/07/14 01:53:34;;;;;;;10.25;1.77;;;;;;;15.59;75.13;102102.69;4973156;28;20059;-76
2022/07/14 01:56:00;;;;;;;7.97;1.88;;;;;;;15.61;75.30;102098.91;4973937;28;20486;-79
2022/07/14 01:58:25;;;;;;;7.32;1.67;;;;;;;15.57;75.32;102099.28;4973853;28;20494;-77
2022/07/14 02:03:35;;;;;;;7.93;1.88;;;;;;;15.51;75.40;102100.03;4973634;28;20547;-79
2022/07/14 02:06:01;;;;;;;12.00;2.03;;;;;;;15.42;75.56;102093.00;4972153;28;20109;-78
2022/07/14 02:08:27;;;;;;;7.88;1.63;;;;;;;15.29;76.07;102096.31;4973454;28;20038;-77
2022/07/14 02:13:36;;;;;;;12.90;2.05;;;;;;;15.27;77.33;102089.38;4973996;28;20694;-76
2022/07/14 02:16:02;;;;;;;10.90;1.90;;;;;;;15.26;77.12;102085.00;4973598;28;20027;-77
2022/07/14 02:18:28;;;;;;;10.68;1.80;;;;;;;15.22;77.28;102089.09;4971683;28;20518;-76
2022/07/14 02:20:53;;;;;;;7.97;1.77;;;;;;;15.20;77.72;102086.56;4972777;28;20027;-78
2022/07/14 02:23:18;;;;;;;13.68;1.92;;;;;;;15.21;78.02;102082.00;4971681;28;20097;-77
2022/07/14 02:25:44;;;;;;;10.68;2.22;;;;;;;15.21;78.09;102073.84;4971688;28;20027;-77
2022/07/14 02:28:09;;;;;;;15.95;2.05;;;;;;;15.21;77.97;102071.97;4971736;28;20035;-77
2022/07/14 02:30:34;;;;;;;14.07;2.15;;;;;;;15.20;77.87;102072.19;4973244;28;20086;-77
2022/07/14 02:33:00;;;;;;;9.23;2.08;;;;;;;15.19;77.88;102073.19;5022014;23;20038;-76
2022/07/14 02:35:26;;;;;;;8.43;1.70;;;;;;;15.17;77.71;102069.84;4990409;28;20153;-75
2022/07/14 02:37:52;;;;;;;10.35;1.73;;;;;;;15.14;77.82;102073.75;4992125;28;20019;-75
2022/07/14 02:40:17;;;;;;;12.25;1.65;;;;;;;15.09;78.00;102077.00;4990082;28;20034;-75
2022/07/14 02:42:42;;;;;;;7.60;2.30;;;;;;;15.07;78.13;102076.34;4991593;28;20026;-75
2022/07/14 02:45:08;;;;;;;9.10;1.77;;;;;;;15.05;78.40;102077.53;4990591;28;20023;-75
2022/07/14 02:47:34;;;;;;;10.15;2.25;;;;;;;15.03;78.28;102066.03;4991121;28;20204;-76
2022/07/14 02:49:59;;;;;;;16.75;2.22;;;;;;;15.03;78.46;102072.28;4989550;28;20435;-77
2022/07/14 02:52:24;;;;;;;7.63;1.70;;;;;;;15.04;78.21;102071.28;4991786;28;20498;-77
2022/07/14 02:54:50;;;;;;;11.30;2.03;;;;;;;15.06;78.35;102069.25;4991575;28;20085;-78
2022/07/14 02:57:15;;;;;;;11.25;2.13;;;;;;;15.04;78.06;102076.69;4991331;28;20034;-75
2022/07/14 02:59:41;;;;;;;9.77;2.28;;;;;;;14.99;78.00;102076.41;4991449;28;20037;-77
2022/07/14 03:02:07;;;;;;;15.63;2.38;;;;;;;14.98;77.88;102077.44;4991886;28;20331;-77
2022/07/14 03:04:33;;;;;;;7.70;1.80;;;;;;;15.00;77.93;102086.22;4992554;28;20093;-77
2022/07/14 03:06:58;;;;;;;11.63;2.47;;;;;;;15.01;77.52;102071.66;4992737;28;20502;-77
2022/07/14 03:09:23;;;;;;;9.88;1.80;;;;;;;15.01;77.84;102078.91;4992669;28;20410;-77
2022/07/14 03:11:49;;;;;;;12.88;1.85;;;;;;;15.02;77.49;102073.31;4992238;28;20062;-77
2022/07/14 03:14:14;;;;;;;13.52;1.95;;;;;;;15.02;78.17;102078.75;4992713;28;20088;-79
2022/07/14 03:16:39;;;;;;;12.05;1.90;;;;;;;15.08;77.46;102075.28;4993017;28;20035;-76
2022/07/14 03:19:05;;;;;;;9.57;1.98;;;;;;;15.10;77.42;102075.97;4992558;28;20022;-76
2022/07/14 03:21:30;;;;;;;7.18;1.60;;;;;;;15.10;77.05;102075.97;4992408;28;20647;-77
2022/07/14 03:23:56;;;;;;;7.80;1.73;;;;;;;15.08;77.11;102069.88;4995094;28;20216;-76
2022/07/14 03:26:21;;;;;;;13.68;2.17;;;;;;;15.10;77.05;102065.13;4992823;28;20033;-76
2022/07/14 03:28:47;;;;;;;12.70;2.25;;;;;;;15.09;76.84;102054.47;4992250;28;20137;-77
2022/07/14 03:31:12;;;;;;;12.75;2.20;;;;;;;15.15;76.52;102057.28;4991694;28;20037;-76
2022/07/14 03:33:37;;;;;;;14.15;2.63;;;;;;;15.07;76.52;102049.22;4999079;28;20053;-76
2022/07/14 03:36:03;;;;;;;8.85;2.10;;;;;;;15.11;76.66;102049.69;4997841;28;20027;-77
2022/07/14 03:38:28;;;;;;;9.75;2.60;;;;;;;15.12;76.71;102051.41;4997120;28;20030;-77
2022/07/14 03:40:54;;;;;;;10.90;1.83;;;;;;;15.01;77.47;102049.97;4989222;28;20030;-76
2022/07/14 03:43:19;;;;;;;13.23;1.83;;;;;;;14.93;78.30;102052.75;4991816;28;20033;-77
2022/07/14 03:45:44;;;;;;;10.95;2.10;;;;;;;14.94;78.59;102067.97;4994710;28;20036;-76
2022/07/14 03:48:10;;;;;;;11.15;2.08;;;;;;;14.97;78.66;102072.19;4996723;28;20413;-78
2022/07/14 03:50:36;;;;;;;10.82;2.50;;;;;;;14.96;78.73;102068.63;4996003;28;20475;-76
2022/07/14 03:53:02;;;;;;;13.90;2.28;;;;;;;14.98;78.18;102068.44;4995693;28;20014;-75
2022/07/14 03:55:27;;;;;;;10.50;1.80;;;;;;;15.00;78.22;102072.66;4996329;28;20026;-75
2022/07/14 03:57:53;;;;;;;7.35;2.28;;;;;;;15.03;78.16;102069.56;4996505;28;20431;-75
2022/07/14 04:00:19;;;;;;;7.22;1.73;;;;;;;15.04;77.60;102057.72;4996864;28;20034;-75
2022/07/14 04:02:44;;;;;;;13.48;2.17;;;;;;;15.01;77.78;102065.34;4995885;28;20519;-74
2022/07/14 04:05:10;;;;;;;8.90;1.60;;;;;;;14.98;78.17;102065.72;4995537;28;20030;-74
2022/07/14 04:07:35;;;;;;;10.68;2.22;;;;;;;14.95;78.27;102056.09;4995187;28;20116;-74
2022/07/14 04:10:01;;;;;;;12.20;2.20;;;;;;;14.85;78.50;102056.34;4995736;28;20493;-75
2022/07/14 04:12:26;;;;;;;11.68;2.28;;;;;;;14.78;79.14;102054.53;4994429;28;20037;-75
2022/07/14 04:14:52;;;;;;;8.55;1.90;;;;;;;14.79;79.59;102058.94;4995027;28;20026;-75
2022/07/14 04:17:17;;;;;;;10.85;2.25;;;;;;;14.83;79.90;102061.09;4994624;28;20022;-75
2022/07/14 04:19:42;;;;;;;9.20;1.73;;;;;;;14.90;79.66;102053.06;4994805;28;20418;-76
2022/07/14 04:22:08;;;;;;;7.85;1.83;;;;;;;14.96;78.85;102046.13;4994631;28;20351;-76
2022/07/14 04:24:33;;;;;;;7.53;1.60;;;;;;;15.08;78.48;102036.50;4994875;28;20037;-77
2022/07/14 04:26:58;;;;;;;14.07;1.98;;;;;;;15.15;77.80;102032.88;4994500;28;20133;-77
2022/07/14 04:29:23;;;;;;;12.18;2.38;;;;;;;15.19;77.82;102029.78;4995321;28;20121;-77
2022/07/14 04:31:49;;;;;;;11.30;1.98;;;;;;;15.23;77.90;102036.56;4986893;28;20105;-76
2022/07/14 04:34:14;;;;;;;9.75;2.00;;;;;;;15.31;77.60;102036.47;4996584;28;20170;-78
2022/07/14 04:36:40;;;;;;;8.75;1.65;;;;;;;15.42;76.99;102041.44;4998394;28;20458;-77
2022/07/14 04:39:06;;;;;;;14.18;2.08;;;;;;;15.45;76.34;102041.06;4996010;28;20639;-77
2022/07/14 04:41:34;;;;;;;6.05;1.65;;;;;;;15.56;76.10;102042.47;4994435;28;20045;-76
2022/07/14 04:43:59;;;;;;;6.05;1.83;;;;;;;15.65;75.66;102038.66;4989342;28;20082;-76
2022/07/14 04:46:25;;;;;;;9.50;2.10;;;;;;;15.69;75.42;102036.44;4994909;28;20418;-76
2022/07/14 04:54:18;;;;;;;6.35;1.52;;;;;;;15.92;75.00;102036.34;4990258;28;20053;-76
2022/07/14 04:56:43;;;;;;;10.15;1.90;;;;;;;16.05;73.98;102041.13;4986765;28;20019;-76
2022/07/14 04:59:09;;;;;;;9.68;2.15;;;;;;;16.10;73.77;102049.56;4975194;28;20473;-76
2022/07/14 05:01:34;;;;;;;6.05;1.63;;;;;;;16.17;73.96;102054.03;4972650;28;20419;-76
2022/07/14 05:04:00;;;;;;;9.80;1.83;;;;;;;16.29;73.77;102051.66;4974156;28;20097;-76
2022/07/14 05:06:25;;;;;;;9.88;1.80;;;;;;;16.40;73.30;102056.63;4975635;28;20157;-77
2022/07/14 05:08:50;;;;;;;15.00;2.15;;;;;;;16.56;72.64;102060.13;4993415;28;20372;-77
2022/07/14 05:11:16;;;;;;;8.15;1.65;;;;;;;16.60;72.10;102056.84;4993232;28;20365;-75
2022/07/14 05:13:41;;;;;;;11.80;1.92;;;;;;;16.75;71.77;102064.97;4992207;28;20413;-76
2022/07/14 05:16:07;;;;;;;7.15;1.50;;;;;;;16.84;71.24;102063.81;4994011;28;20019;-76
2022/07/14 05:18:32;;;;;;;7.95;1.63;;;;;;;16.96;70.74;102056.00;4993614;28;20474;-76
2022/07/14 05:20:58;;;;;;;6.35;1.55;;;;;;;17.10;70.64;102062.38;4994037;28;20033;-77
2022/07/14 05:23:23;;;;;;;9.00;2.50;;;;;;;17.25;70.18;102065.03;4993045;28;20125;-77
2022/07/14 05:25:48;;;;;;;15.05;2.17;;;;;;;17.36;69.16;102063.66;4994484;28;20034;-78
2022/07/14 05:28:14;;;;;;;7.47;1.70;;;;;;;17.48;68.96;102064.78;5004866;28;20030;-77
2022/07/14 05:30:39;;;;;;;7.38;1.70;;;;;;;17.51;68.14;102064.41;5008300;28;20069;-77
2022/07/14 05:33:04;;;;;;;10.50;1.95;;;;;;;17.48;67.36;102051.19;5011221;28;20034;-77
2022/07/14 05:35:30;;;;;;;6.95;2.10;;;;;;;17.39;67.67;102064.09;5009841;28;20466;-77
2022/07/14 05:37:55;;;;;;;10.27;2.15;;;;;;;17.36;68.00;102063.66;5006363;28;20034;-77
2022/07/14 05:40:20;;;;;;;9.50;1.60;;;;;;;17.37;68.96;102076.22;5001412;28;20028;-77
2022/07/14 05:42:46;;;;;;;6.72;1.45;;;;;;;17.45;69.41;102070.63;4996088;28;20089;-77
2022/07/14 05:45:11;;;;;;;9.20;1.50;;;;;;;17.45;69.37;102076.06;4995476;28;20085;-76
2022/07/14 05:47:38;;;;;;;7.85;2.13;;;;;;;17.57;68.70;102077.22;4997631;28;20049;-76
2022/07/14 05:50:04;;;;;;;13.38;1.80;;;;;;;17.67;68.91;102074.16;5008042;28;20086;-78
2022/07/14 05:52:30;;;;;;;15.00;1.70;;;;;;;17.92;67.73;102077.28;4998872;28;20022;-77
2022/07/14 05:54:59;;;;;;;9.52;1.70;;;;;;;18.09;66.33;102078.63;4996324;28;20026;-77
2022/07/14 05:57:24;;;;;;;6.13;1.58;;;;;;;18.26;65.22;102078.28;4998708;28;20022;-77
2022/07/14 05:59:49;;;;;;;5.30;1.58;;;;;;;18.37;64.64;102078.53;5005365;28;20077;-77
2022/07/14 06:02:15;;;;;;;14.05;2.00;;;;;;;18.40;63.28;102074.56;4995316;28;20054;-77
2022/07/14 06:04:40;;;;;;;11.52;1.75;;;;;;;18.49;62.91;102078.81;4998772;28;20037;-76
2022/07/14 06:07:09;;;;;;;12.13;1.92;;;;;;;18.52;62.63;102083.84;5000742;28;20382;-76
2022/07/14 06:09:36;;;;;;;8.77;1.90;;;;;;;18.51;62.83;102074.00;4997892;28;20034;-78
2022/07/14 06:12:03;;;;;;;19.35;2.28;;;;;;;18.63;63.00;102076.94;4987843;28;20106;-77
2022/07/14 06:14:28;;;;;;;7.55;1.77;;;;;;;18.70;62.87;102076.97;4997278;28;20027;-77
2022/07/14 06:16:54;;;;;;;6.32;1.70;;;;;;;18.73;62.67;102065.66;4997848;28;20513;-79
2022/07/14 06:19:19;;;;;;;6.75;1.60;;;;;;;18.84;62.80;102067.81;4994504;28;20437;-77
2022/07/14 06:21:44;;;;;;;11.25;2.08;;;;;;;19.03;62.27;102058.78;4994942;28;20074;-82
2022/07/14 06:24:12;;;;;;;9.18;1.95;;;;;;;19.34;60.93;102049.16;4993919;28;20030;-78
2022/07/14 06:26:37;;;;;;;8.50;1.95;;;;;;;19.66;60.61;102047.47;4995418;28;20046;-77
2022/07/14 06:29:03;;;;;;;8.23;1.73;;;;;;;20.12;59.61;102046.50;4995916;28;20052;-77
2022/07/14 06:31:29;;;;;;;9.13;1.75;;;;;;;20.78;57.30;102039.88;4993175;28;20033;-77
2022/07/14 06:33:54;;;;;;;7.07;1.48;;;;;;;21.39;55.92;102041.09;4993470;28;20090;-78
2022/07/14 06:36:20;;;;;;;7.82;1.83;;;;;;;21.55;53.17;102045.16;4994064;28;20060;-78
2022/07/14 06:38:45;;;;;;;6.65;1.55;;;;;;;21.84;53.12;102034.53;4995057;28;20057;-77
2022/07/14 06:41:10;;;;;;;17.00;3.65;;;;;;;22.25;52.84;102038.47;4995435;28;20034;-78
2022/07/14 06:43:36;;;;;;;185.93;36.38;;;;;;;22.77;51.13;102034.13;4994077;28;20634;-78
2022/07/14 06:46:01;;;;;;;30.10;7.25;;;;;;;23.19;49.42;102041.53;4996398;28;20030;-78
2022/07/14 06:48:27;;;;;;;30.30;7.13;;;;;;;23.44;48.21;102030.34;4995765;28;20251;-79
2022/07/14 06:50:52;;;;;;;11.45;2.13;;;;;;;23.53;47.55;102033.56;4998431;28;20030;-78
2022/07/14 06:53:18;;;;;;;4.75;1.60;;;;;;;23.52;46.68;102026.41;5008731;28;20454;-77
2022/07/14 06:55:43;;;;;;;7.93;2.05;;;;;;;23.47;47.62;102026.28;5002928;28;20096;-79
2022/07/14 06:58:08;;;;;;;9.65;2.05;;;;;;;23.51;48.08;102030.19;4994788;28;20077;-79
2022/07/14 07:00:34;;;;;;;16.30;3.13;;;;;;;23.59;47.14;102016.09;4993056;28;20049;-78
2022/07/14 07:02:59;;;;;;;9.52;2.25;;;;;;;23.44;47.04;102022.94;4993248;28;20521;-78
2022/07/14 07:08:08;;;;;;;29.58;4.75;;;;;;;24.57;46.38;102022.56;4995129;28;20061;-79
2022/07/14 07:10:40;;;;;;;7.95;2.00;;;;;;;25.71;42.41;102026.06;4994324;28;20034;-79
2022/07/14 07:13:06;;;;;;;62.33;11.43;;;;;;;25.77;40.80;102025.03;4993089;28;20037;-78
2022/07/14 07:15:32;;;;;;;11.48;2.35;;;;;;;26.03;39.74;102029.00;4992749;28;20461;-78
2022/07/14 07:17:59;;;;;;;6.68;1.80;;;;;;;26.21;39.98;102025.06;4994502;28;20065;-78
2022/07/14 07:20:24;;;;;;;8.88;1.88;;;;;;;25.56;40.80;102030.25;4995313;28;20510;-78
2022/07/14 07:22:49;;;;;;;8.98;2.08;;;;;;;25.49;42.49;102029.63;4997132;28;20038;-79
2022/07/14 07:25:15;;;;;;;9.18;2.42;;;;;;;24.79;43.37;102027.38;4996456;28;20030;-78
2022/07/14 07:27:40;;;;;;;13.43;2.00;;;;;;;23.65;45.38;102035.22;4998358;28;20130;-78
2022/07/14 07:30:08;;;;;;;14.57;2.03;;;;;;;22.83;46.53;102035.13;4995171;28;20157;-78
2022/07/14 07:32:33;;;;;;;11.80;1.80;;;;;;;23.09;46.15;102027.56;4996176;28;20084;-78
2022/07/14 07:34:59;;;;;;;8.95;2.15;;;;;;;23.54;43.86;102022.34;4996175;28;20516;-78
2022/07/14 07:37:24;;;;;;;9.38;1.73;;;;;;;23.40;43.29;102020.88;4996259;28;20481;-78
2022/07/14 07:39:50;;;;;;;9.13;1.90;;;;;;;25.42;41.31;102039.16;4996814;28;20032;-78
2022/07/14 07:42:15;;;;;;;6.90;1.63;;;;;;;27.00;38.44;102034.72;4997412;28;20023;-79
2022/07/14 07:44:41;;;;;;;7.53;1.65;;;;;;;27.95;35.58;102048.66;4997606;28;20034;-78
2022/07/14 07:47:06;;;;;;;7.65;1.77;;;;;;;29.04;32.05;102049.53;4997975;28;20101;-79
2022/07/14 07:49:32;;;;;;;7.40;1.77;;;;;;;29.04;30.16;102049.53;4995533;28;20032;-78
2022/07/14 07:51:59;;;;;;;11.65;1.75;;;;;;;29.58;30.79;102052.78;4995441;28;20035;-79
2022/07/14 07:54:25;;;;;;;4.95;1.50;;;;;;;30.33;30.93;102042.56;4996430;28;20382;-80
2022/07/14 07:56:50;;;;;;;10.48;1.85;;;;;;;31.03;29.60;102041.53;4996547;28;20108;-78
2022/07/14 07:59:16;;;;;;;6.43;1.53;;;;;;;30.93;29.55;102050.75;4997158;28;20026;-79
2022/07/14 08:01:41;;;;;;;7.33;1.70;;;;;;;30.82;28.39;102047.25;4997471;28;20035;-79
2022/07/14 08:04:07;;;;;;;6.33;1.60;;;;;;;31.32;28.22;102043.47;4996354;28;20038;-79
2022/07/14 08:06:33;;;;;;;8.82;1.83;;;;;;;30.98;28.79;102044.34;4995909;28;20104;-79
2022/07/14 08:08:58;;;;;;;6.03;1.53;;;;;;;31.49;27.99;102041.94;4994823;28;20454;-79
2022/07/14 08:11:23;;;;;;;8.63;1.60;;;;;;;31.12;28.66;102031.41;4995628;28;20031;-78
2022/07/14 08:13:49;;;;;;;5.93;1.40;;;;;;;30.58;30.57;102026.84;4995372;28;20073;-78
2022/07/14 08:16:14;;;;;;;11.27;1.93;;;;;;;30.44;31.22;102029.44;4995431;28;20375;-80
2022/07/14 08:18:39;;;;;;;10.73;1.87;;;;;;;30.17;31.06;102029.81;4996685;28;20452;-78
2022/07/14 08:21:05;;;;;;;9.07;1.67;;;;;;;30.14;30.35;102022.88;5007535;28;20045;-78
2022/07/14 08:23:30;;;;;;;6.33;1.50;;;;;;;30.32;30.39;102020.63;5010695;28;20065;-78
2022/07/14 08:25:57;;;;;;;10.23;1.70;;;;;;;30.53;29.56;102018.53;4996175;28;20093;-78
2022/07/14 08:28:22;;;;;;;11.65;1.52;;;;;;;30.77;28.62;102018.63;4996274;28;20120;-78
2022/07/14 08:30:47;;;;;;;6.00;1.50;;;;;;;32.01;27.26;102024.66;4994524;28;20562;-79
2022/07/14 08:33:13;;;;;;;12.30;1.30;;;;;;;32.40;26.66;102027.16;4995260;28;20070;-78
2022/07/14 08:35:38;;;;;;;6.63;1.90;;;;;;;31.40;27.47;102018.66;4996131;28;20141;-79
2022/07/14 08:38:04;;;;;;;7.23;1.27;;;;;;;31.44;27.81;102027.25;4995995;28;20034;-78
2022/07/14 08:40:29;;;;;;;4.80;1.30;;;;;;;31.73;27.83;102018.84;4996110;28;20098;-79
2022/07/14 08:42:56;;;;;;;16.20;1.73;;;;;;;31.77;29.06;102022.69;4995694;28;20057;-78
2022/07/14 08:45:25;;;;;;;7.38;1.23;;;;;;;32.66;27.63;102021.22;4995252;28;20085;-79
2022/07/14 08:47:52;;;;;;;10.00;1.50;;;;;;;33.05;27.53;102020.06;4995898;28;20109;-78
2022/07/14 08:50:20;;;;;;;8.73;1.60;;;;;;;32.80;28.23;102014.56;4997425;28;20026;-77
2022/07/14 08:52:47;;;;;;;13.85;2.00;;;;;;;32.33;29.63;102009.97;4995929;28;20144;-78
2022/07/14 08:55:15;;;;;;;8.85;1.42;;;;;;;33.08;28.41;102025.00;4995915;28;20114;-79
2022/07/14 08:57:41;;;;;;;7.30;1.48;;;;;;;33.05;28.75;102015.31;4996038;28;20117;-79
2022/07/14 09:00:11;;;;;;;9.40;1.42;;;;;;;32.17;29.81;102008.56;4997691;28;20038;-79
2022/07/14 09:02:37;;;;;;;6.88;1.70;;;;;;;32.00;30.80;102006.28;4996089;28;20145;-80
2022/07/14 09:05:04;;;;;;;9.95;1.50;;;;;;;32.53;30.08;102008.88;4994576;28;20022;-78
2022/07/14 09:07:37;;;;;;;7.55;1.58;;;;;;;32.26;29.98;102020.69;4995466;28;20034;-79
2022/07/14 09:10:07;;;;;;;13.18;1.98;;;;;;;31.69;31.12;102015.00;4995039;28;20493;-80
2022/07/14 09:12:33;;;;;;;13.75;1.70;;;;;;;32.26;30.65;102023.47;4996482;28;20493;-78
2022/07/14 09:18:12;;;;;;;7.70;1.30;;;;;;;33.77;27.27;102036.28;4995143;28;20089;-81
2022/07/14 09:20:38;;;;;;;11.13;2.00;;;;;;;32.49;29.58;102024.53;4995492;28;20038;-81
2022/07/14 09:23:04;;;;;;;5.57;1.10;;;;;;;31.85;30.12;102016.47;4995321;28;20061;-79
2022/07/14 09:25:32;;;;;;;8.38;1.50;;;;;;;31.47;30.65;102010.78;4995261;28;20030;-79
2022/07/14 09:27:57;;;;;;;6.68;1.20;;;;;;;31.63;31.19;102024.53;4995772;28;20057;-79
2022/07/14 09:30:24;;;;;;;10.50;1.57;;;;;;;31.52;31.18;102015.47;4995352;28;20076;-79
2022/07/14 09:32:58;;;;;;;10.10;1.55;;;;;;;31.62;31.34;102028.44;4995274;28;20037;-79
2022/07/14 09:35:36;;;;;;;8.27;1.52;;;;;;;32.19;30.38;102015.47;4995568;28;20046;-79
2022/07/14 09:38:23;;;;;;;11.73;1.90;;;;;;;31.82;31.04;102024.59;4996652;28;20391;-79
2022/07/14 09:40:49;;;;;;;8.43;1.88;;;;;;;31.93;30.71;102018.59;4995661;28;20094;-80
2022/07/14 09:43:15;;;;;;;6.15;1.30;;;;;;;31.76;31.18;102025.78;4995874;28;20034;-79
2022/07/14 09:45:44;;;;;;;6.45;1.20;;;;;;;32.00;31.28;102017.44;4998561;28;20026;-79
2022/07/14 09:48:10;;;;;;;8.32;1.60;;;;;;;32.56;30.79;102020.25;5014870;28;20015;-78
2022/07/14 09:50:54;;;;;;;5.65;1.42;;;;;;;32.74;29.90;102023.31;5006464;28;20027;-79
2022/07/14 09:53:27;;;;;;;13.52;1.88;;;;;;;32.52;30.05;102024.78;4996224;28;20027;-78
2022/07/14 09:55:56;;;;;;;8.55;1.88;;;;;;;31.97;30.30;102026.38;4995471;28;20077;-79
2022/07/14 09:58:23;;;;;;;5.40;1.27;;;;;;;32.10;30.54;102020.91;4994644;28;20022;-79
2022/07/14 10:00:56;;;;;;;7.55;1.23;;;;;;;32.79;29.77;102032.44;4996908;28;20037;-79
2022/07/14 10:03:22;;;;;;;10.23;1.20;;;;;;;32.89;29.62;102034.22;4995955;28;20035;-79
2022/07/14 10:05:48;;;;;;;11.55;1.55;;;;;;;33.23;28.28;102038.69;4995057;28;20022;-79
2022/07/14 10:08:15;;;;;;;19.30;1.80;;;;;;;32.73;28.61;102032.81;4993038;28;20022;-79
2022/07/14 10:10:40;;;;;;;10.77;1.77;;;;;;;32.57;28.59;102041.44;4996055;28;20027;-79
2022/07/14 10:13:06;;;;;;;8.53;1.40;;;;;;;32.85;29.20;102035.97;4997119;28;20137;-78
2022/07/14 10:15:31;;;;;;;5.23;1.57;;;;;;;32.65;29.18;102039.06;4995003;28;20060;-78
2022/07/14 10:18:00;;;;;;;6.80;1.00;;;;;;;32.56;29.50;102036.16;4994136;28;20022;-78
2022/07/14 10:20:25;;;;;;;3.88;1.10;;;;;;;32.44;29.33;102024.59;4993908;28;20069;-78
2022/07/14 10:22:54;;;;;;;4.70;1.07;;;;;;;32.00;29.53;102032.19;4992558;28;20366;-78
2022/07/14 10:25:19;;;;;;;3.72;1.00;;;;;;;32.13;29.16;102028.66;4994580;28;20508;-79
2022/07/14 10:27:46;;;;;;;6.47;1.10;;;;;;;31.88;30.29;102031.75;4995699;28;20030;-79
2022/07/14 10:30:11;;;;;;;6.18;1.33;;;;;;;31.63;30.49;102027.31;4995720;28;20038;-77
2022/07/14 10:32:57;;;;;;;4.10;1.00;;;;;;;31.22;30.89;102034.09;4994313;28;20034;-78
2022/07/14 10:35:35;;;;;;;4.73;1.50;;;;;;;30.60;31.78;102030.16;4992971;28;20057;-78
2022/07/14 10:38:03;;;;;;;7.15;1.30;;;;;;;30.47;31.57;102036.38;4994956;28;20034;-77
2022/07/14 10:40:36;;;;;;;4.93;1.00;;;;;;;30.75;30.53;102032.81;4994166;28;20031;-79
2022/07/14 10:43:10;;;;;;;6.25;1.50;;;;;;;30.31;31.01;102028.13;4993920;28;20117;-77
2022/07/14 10:45:46;;;;;;;3.75;1.02;;;;;;;30.12;30.81;102032.63;4996385;28;20053;-78
2022/07/14 10:48:35;;;;;;;8.17;1.03;;;;;;;29.96;31.87;102032.72;4993791;28;20034;-78
2022/07/14 10:51:21;;;;;;;12.65;1.38;;;;;;;29.77;32.12;102025.28;4996075;28;20382;-78
2022/07/14 10:54:00;;;;;;;5.88;1.38;;;;;;;29.66;32.17;102033.66;4992198;28;20127;-77
2022/07/14 10:56:26;;;;;;;8.70;1.50;;;;;;;29.59;32.02;102023.91;4994393;28;20029;-77
2022/07/14 10:59:25;;;;;;;3.30;1.10;;;;;;;30.22;31.22;102038.13;4994904;28;20037;-77
2022/07/14 11:02:13;;;;;;;5.80;1.00;;;;;;;30.07;31.27;102035.41;4994077;28;20033;-77
2022/07/14 11:04:56;;;;;;;7.85;1.20;;;;;;;30.14;30.85;102030.41;4994044;28;20422;-79
2022/07/14 11:07:35;;;;;;;5.07;1.30;;;;;;;29.96;32.08;102037.41;4993877;28;20022;-77
2022/07/14 11:10:03;;;;;;;6.53;1.17;;;;;;;30.18;31.14;102039.84;4995664;28;20026;-78
2022/07/14 11:12:28;;;;;;;7.35;1.00;;;;;;;30.14;30.63;102036.78;4993050;28;20019;-79
2022/07/14 11:14:54;;;;;;;5.43;1.03;;;;;;;29.94;30.68;102028.56;5006163;28;20038;-77
2022/07/14 11:17:39;;;;;;;7.72;1.40;;;;;;;30.25;31.38;102034.81;5013589;28;20038;-77
2022/07/14 11:20:08;;;;;;;6.97;1.30;;;;;;;30.21;30.57;102041.22;4997252;28;20023;-78
2022/07/14 11:22:34;;;;;;;6.93;1.17;;;;;;;30.64;30.75;102047.91;4993424;28;20099;-77
2022/07/14 11:25:00;;;;;;;7.57;1.40;;;;;;;30.69;30.04;102050.66;4992911;28;20116;-78
2022/07/14 11:27:35;;;;;;;7.45;1.25;;;;;;;30.53;30.92;102046.31;4993890;28;20030;-77
2022/07/14 11:30:28;;;;;;;5.97;1.33;;;;;;;30.38;30.90;102048.06;4995606;28;20018;-78
2022/07/14 11:33:00;;;;;;;6.07;1.25;;;;;;;30.26;31.61;102050.38;4993939;28;20109;-78
2022/07/14 11:38:28;;;;;;;5.53;1.10;;;;;;;30.77;30.93;102058.38;4975145;28;20057;-77
2022/07/14 11:40:54;;;;;;;6.18;1.17;;;;;;;31.16;29.76;102063.09;4974773;28;20147;-78